createdAt,value
2022-08-22T00:00:13.352Z,97438.84
2022-08-22T00:02:57.905Z,97446.91
2022-08-22T00:03:09.682Z,97447.94
2022-08-22T00:06:16.314Z,97440.28
2022-08-22T00:09:02.938Z,97440.28
2022-08-22T00:11:45.491Z,97437.78
2022-08-22T00:14:21.781Z,97443.16
2022-08-22T00:16:59.677Z,97436.34
2022-08-22T00:19:42.002Z,97440.69
2022-08-22T00:22:20.536Z,97438.19
2022-08-22T00:24:55.682Z,97440.50
2022-08-22T00:27:33.964Z,97442.56
2022-08-22T00:30:14.549Z,97441.13
2022-08-22T00:32:49.695Z,97439.03
2022-08-22T00:35:28.543Z,97442.53
2022-08-22T00:38:11.818Z,97437.41
2022-08-22T00:41:04.756Z,97439.88
2022-08-22T00:44:12.678Z,97447.91
2022-08-22T00:47:18.464Z,97452.06
2022-08-22T00:50:08.836Z,97446.47
2022-08-22T00:53:05.202Z,97459.91
2022-08-22T00:55:55.180Z,97457.63
2022-08-22T00:59:23.947Z,97458.00
2022-08-22T01:02:06.426Z,97461.53
2022-08-22T01:04:56.174Z,97456.34
2022-08-22T01:07:55.847Z,97448.50
2022-08-22T01:10:41.644Z,97447.66
2022-08-22T01:13:37.776Z,97451.38
2022-08-22T01:16:21.961Z,97442.47
2022-08-22T01:19:13.213Z,97451.97
2022-08-22T01:22:34.882Z,97454.88
2022-08-22T01:26:06.643Z,97454.47
2022-08-22T01:29:27.715Z,97455.09
2022-08-22T01:32:41.754Z,97455.28
2022-08-22T01:36:02.730Z,97460.03
2022-08-22T01:39:03.258Z,97453.81
2022-08-22T01:42:07.892Z,97451.13
2022-08-22T01:45:18.126Z,97447.44
2022-08-22T01:47:53.719Z,97456.50
2022-08-22T01:50:27.057Z,97460.44
2022-08-22T01:53:07.226Z,97455.88
2022-08-22T01:55:41.383Z,97446.63
2022-08-22T01:58:19.726Z,97454.47
2022-08-22T02:01:14.798Z,97456.13
2022-08-22T02:04:00.410Z,97460.66
2022-08-22T02:06:42.161Z,97452.19
2022-08-22T02:09:27.379Z,97454.88
2022-08-22T02:12:00.389Z,97452.81
2022-08-22T02:14:42.380Z,97455.72
2022-08-22T02:17:19.874Z,97458.19
2022-08-22T02:19:57.648Z,97462.53
2022-08-22T02:22:44.505Z,97461.53
2022-08-22T02:25:22.930Z,97465.88
2022-08-22T02:27:59.026Z,97460.69
2022-08-22T02:30:45.390Z,97466.72
2022-08-22T02:33:25.298Z,97463.00
2022-08-22T02:35:58.144Z,97456.56
2022-08-22T02:38:33.739Z,97459.06
2022-08-22T02:41:15.750Z,97455.56
2022-08-22T02:43:53.285Z,97451.00
2022-08-22T02:46:30.717Z,97449.16
2022-08-22T02:49:14.158Z,97450.19
2022-08-22T02:51:53.174Z,97452.03
2022-08-22T02:54:31.885Z,97449.16
2022-08-22T02:57:09.539Z,97451.84
2022-08-22T03:00:32.542Z,97448.50
2022-08-22T03:03:17.226Z,97447.25
2022-08-22T03:06:01.311Z,97449.94
2022-08-22T03:08:34.402Z,97438.19
2022-08-22T03:11:17.561Z,97443.94
2022-08-22T03:13:56.767Z,97447.66
2022-08-22T03:16:35.985Z,97438.97
2022-08-22T03:19:14.868Z,97440.00
2022-08-22T03:21:55.646Z,97438.34
2022-08-22T03:24:32.948Z,97444.75
2022-08-22T03:27:09.358Z,97439.56
2022-08-22T03:29:46.202Z,97441.66
2022-08-22T03:32:19.209Z,97443.50
2022-08-22T03:35:03.727Z,97445.97
2022-08-22T03:37:41.694Z,97446.16
2022-08-22T03:40:31.449Z,97451.94
2022-08-22T03:43:27.183Z,97455.66
2022-08-22T03:46:45.916Z,97444.72
2022-08-22T03:49:59.791Z,97448.81
2022-08-22T03:53:18.717Z,97440.97
2022-08-22T03:56:40.653Z,97441.56
2022-08-22T04:00:00.540Z,97447.53
2022-08-22T04:03:12.861Z,97443.22
2022-08-22T04:06:23.274Z,97450.03
2022-08-22T04:09:22.417Z,97448.75
2022-08-22T04:12:25.885Z,97451.84
2022-08-22T04:15:40.481Z,97450.38
2022-08-22T04:18:46.405Z,97457.81
2022-08-22T04:22:16.210Z,97462.13
2022-08-22T04:24:54.365Z,97453.44
2022-08-22T04:27:30.719Z,97456.13
2022-08-22T04:30:08.691Z,97456.31
2022-08-22T04:32:44.014Z,97456.31
2022-08-22T04:35:27.359Z,97456.72
2022-08-22T04:38:01.770Z,97455.25
2022-08-22T04:40:37.397Z,97461.66
2022-08-22T04:43:14.606Z,97457.34
2022-08-22T04:45:49.825Z,97464.75
2022-08-22T04:48:26.930Z,97469.44
2022-08-22T04:51:03.173Z,97465.94
2022-08-22T04:53:57.500Z,97469.03
2022-08-22T04:56:40.747Z,97458.91
2022-08-22T04:59:14.122Z,97475.59
2022-08-22T05:01:47.940Z,97481.16
2022-08-22T05:04:21.112Z,97478.69
2022-08-22T05:06:55.084Z,97479.06
2022-08-22T05:09:29.637Z,97486.13
2022-08-22T05:12:05.439Z,97486.31
2022-08-22T05:14:40.893Z,97491.22
2022-08-22T05:17:15.499Z,97488.56
2022-08-22T05:19:51.350Z,97491.22
2022-08-22T05:22:25.580Z,97486.91
2022-08-22T05:25:00.093Z,97487.91
2022-08-22T05:27:33.263Z,97488.75
2022-08-22T05:30:09.651Z,97493.47
2022-08-22T05:32:50.166Z,97499.88
2022-08-22T05:35:21.205Z,97496.34
2022-08-22T05:37:55.638Z,97507.28
2022-08-22T05:40:27.281Z,97500.06
2022-08-22T05:42:58.106Z,97505.44
2022-08-22T05:45:28.758Z,97508.94
2022-08-22T05:48:04.250Z,97514.31
2022-08-22T05:50:39.490Z,97508.09
2022-08-22T05:53:14.394Z,97511.81
2022-08-22T05:55:56.644Z,97512.44
2022-08-22T05:58:51.688Z,97503.38
2022-08-22T06:01:30.115Z,97506.69
2022-08-22T06:04:17.562Z,97501.75
2022-08-22T06:06:56.920Z,97510.44
2022-08-22T06:09:35.900Z,97514.59
2022-08-22T06:12:18.195Z,97512.34
2022-08-22T06:15:00.663Z,97502.22
2022-08-22T06:17:34.393Z,97515.91
2022-08-22T06:20:04.221Z,97523.38
2022-08-22T06:22:38.029Z,97519.25
2022-08-22T06:25:15.342Z,97520.50
2022-08-22T06:27:46.665Z,97524.47
2022-08-22T06:30:17.148Z,97518.53
2022-08-22T06:32:59.926Z,97525.97
2022-08-22T06:35:53.790Z,97524.34
2022-08-22T06:38:25.731Z,97523.53
2022-08-22T06:40:56.579Z,97521.72
2022-08-22T06:43:26.530Z,97523.38
2022-08-22T06:45:55.998Z,97520.53
2022-08-22T06:48:25.629Z,97518.28
2022-08-22T06:50:58.854Z,97521.63
2022-08-22T06:53:33.566Z,97520.03
2022-08-22T06:56:05.644Z,97523.97
2022-08-22T06:58:39.897Z,97523.59
2022-08-22T07:01:12.779Z,97529.41
2022-08-22T07:03:46.471Z,97527.97
2022-08-22T07:06:17.807Z,97530.84
2022-08-22T07:08:47.507Z,97526.34
2022-08-22T07:11:25.588Z,97527.78
2022-08-22T07:13:58.154Z,97524.47
2022-08-22T07:16:35.945Z,97520.53
2022-08-22T07:19:04.324Z,97527.75
2022-08-22T07:21:46.218Z,97527.72
2022-08-22T07:24:22.108Z,97523.75
2022-08-22T07:27:12.632Z,97518.19
2022-08-22T07:30:00.739Z,97518.72
2022-08-22T07:32:43.306Z,97511.19
2022-08-22T07:35:16.429Z,97511.53
2022-08-22T07:37:58.466Z,97500.66
2022-08-22T07:40:34.866Z,97505.59
2022-08-22T07:43:17.608Z,97504.22
2022-08-22T07:45:53.249Z,97510.75
2022-08-22T07:48:28.491Z,97508.31
2022-08-22T07:51:05.700Z,97499.47
2022-08-22T07:53:42.832Z,97501.59
2022-08-22T07:56:17.162Z,97504.31
2022-08-22T07:59:09.900Z,97499.50
2022-08-22T08:01:48.150Z,97507.78
2022-08-22T08:04:20.848Z,97509.41
2022-08-22T08:06:52.833Z,97502.91
2022-08-22T08:09:21.992Z,97496.69
2022-08-22T08:11:54.634Z,97500.13
2022-08-22T08:14:26.106Z,97497.34
2022-08-22T08:17:03.742Z,97501.81
2022-08-22T08:19:36.123Z,97499.66
2022-08-22T08:22:05.963Z,97498.69
2022-08-22T08:24:44.759Z,97506.69
2022-08-22T08:27:36.503Z,97495.16
2022-08-22T08:30:15.573Z,97496.31
2022-08-22T08:32:50.082Z,97495.53
2022-08-22T08:35:25.490Z,97499.94
2022-08-22T08:38:01.121Z,97490.25
2022-08-22T08:40:58.751Z,97494.91
2022-08-22T08:43:38.287Z,97489.75
2022-08-22T08:46:57.427Z,97494.59
2022-08-22T08:49:42.928Z,97491.00
2022-08-22T08:52:58.537Z,97489.28
2022-08-22T08:55:42.134Z,97491.09
2022-08-22T08:58:34.809Z,97485.56
2022-08-22T09:01:20.940Z,97501.25
2022-08-22T09:04:40.314Z,97495.81
2022-08-22T09:07:37.694Z,97497.94
2022-08-22T09:10:39.392Z,97484.78
2022-08-22T09:13:34.486Z,97488.50
2022-08-22T09:16:36.136Z,97495.56
2022-08-22T09:23:05.220Z,97488.28
2022-08-22T09:25:44.194Z,97487.66
2022-08-22T09:28:18.195Z,97491.56
2022-08-22T09:31:21.972Z,97492.22
2022-08-22T09:34:09.905Z,97486.06
2022-08-22T09:37:02.213Z,97484.75
2022-08-22T09:39:39.302Z,97495.91
2022-08-22T09:42:20.142Z,97486.38
2022-08-22T09:45:19.029Z,97494.53
2022-08-22T09:48:07.296Z,97493.41
2022-08-22T09:50:54.649Z,97495.53
2022-08-22T09:53:53.141Z,97494.09
2022-08-22T09:56:28.984Z,97497.34
2022-08-22T09:59:06.646Z,97498.97
2022-08-22T10:01:48.977Z,97496.75
2022-08-22T10:04:46.618Z,97502.22
2022-08-22T10:07:39.956Z,97499.47
2022-08-22T10:10:26.421Z,97497.06
2022-08-22T10:13:02.916Z,97491.13
2022-08-22T10:15:39.608Z,97497.13
2022-08-22T10:18:22.026Z,97496.03
2022-08-22T10:21:04.109Z,97498.25
2022-08-22T10:23:41.601Z,97496.91
2022-08-22T10:26:30.217Z,97498.59
2022-08-22T10:29:27.842Z,97502.72
2022-08-22T10:32:07.729Z,97501.94
2022-08-22T10:34:49.014Z,97498.53
2022-08-22T10:37:30.305Z,97491.53
2022-08-22T10:40:07.140Z,97491.09
2022-08-22T10:42:43.621Z,97489.81
2022-08-22T10:45:35.322Z,97487.47
2022-08-22T10:48:34.512Z,97489.97
2022-08-22T10:51:20.478Z,97498.19
2022-08-22T10:54:20.026Z,97492.72
2022-08-22T10:56:59.217Z,97497.09
2022-08-22T10:59:41.359Z,97496.56
2022-08-22T11:02:31.902Z,97490.84
2022-08-22T11:05:33.807Z,97496.28
2022-08-22T11:08:40.297Z,97500.38
2022-08-22T11:11:34.717Z,97493.84
2022-08-22T11:14:24.186Z,97491.13
2022-08-22T11:17:11.958Z,97490.88
2022-08-22T11:20:12.306Z,97490.59
2022-08-22T11:22:59.638Z,97494.41
2022-08-22T11:25:43.853Z,97487.03
2022-08-22T11:28:31.949Z,97501.47
2022-08-22T11:31:11.795Z,97489.16
2022-08-22T11:33:47.861Z,97500.06
2022-08-22T11:36:38.110Z,97505.25
2022-08-22T11:39:20.939Z,97498.13
2022-08-22T11:42:01.349Z,97497.00
2022-08-22T11:44:37.544Z,97506.00
2022-08-22T11:47:26.764Z,97506.75
2022-08-22T11:50:02.297Z,97499.63
2022-08-22T11:53:01.632Z,97504.19
2022-08-22T11:55:39.937Z,97507.91
2022-08-22T11:58:31.212Z,97508.66
2022-08-22T12:01:04.475Z,97505.59
2022-08-22T12:04:03.383Z,97515.56
2022-08-22T12:07:00.225Z,97517.72
2022-08-22T12:09:39.161Z,97510.81
2022-08-22T12:12:43.299Z,97513.72
2022-08-22T12:15:21.320Z,97513.69
2022-08-22T12:18:36.330Z,97508.91
2022-08-22T12:21:38.449Z,97507.47
2022-08-22T12:24:22.619Z,97515.44
2022-08-22T12:27:27.939Z,97511.88
2022-08-22T12:30:14.088Z,97513.06
2022-08-22T12:33:28.995Z,97506.44
2022-08-22T12:36:43.703Z,97503.94
2022-08-22T12:39:43.424Z,97511.66
2022-08-22T12:42:50.184Z,97504.00
2022-08-22T12:45:44.043Z,97505.34
2022-08-22T12:48:30.865Z,97498.00
2022-08-22T12:51:22.466Z,97497.25
2022-08-22T12:54:37.569Z,97495.13
2022-08-22T12:57:23.809Z,97492.72
2022-08-22T12:59:58.219Z,97491.63
2022-08-22T13:02:30.480Z,97485.13
2022-08-22T13:05:04.170Z,97493.03
2022-08-22T13:07:38.529Z,97489.25
2022-08-22T13:10:34.941Z,97491.38
2022-08-22T13:13:12.120Z,97487.91
2022-08-22T13:15:53.821Z,97480.56
2022-08-22T13:18:31.172Z,97479.47
2022-08-22T13:21:04.291Z,97484.41
2022-08-22T13:23:39.951Z,97485.56
2022-08-22T13:26:33.675Z,97478.28
2022-08-22T13:29:25.115Z,97474.78
2022-08-22T13:32:00.019Z,97472.94
2022-08-22T13:34:39.834Z,97474.28
2022-08-22T13:37:16.041Z,97478.69
2022-08-22T13:39:49.320Z,97473.53
2022-08-22T13:42:30.761Z,97473.03
2022-08-22T13:45:05.769Z,97463.53
2022-08-22T13:47:39.811Z,97459.47
2022-08-22T13:50:15.113Z,97465.75
2022-08-22T13:52:52.447Z,97463.56
2022-08-22T13:55:36.385Z,97459.47
2022-08-22T13:58:16.209Z,97463.56
2022-08-22T14:01:41.923Z,97461.09
2022-08-22T14:04:36.279Z,97457.78
2022-08-22T14:07:28.673Z,97470.28
2022-08-22T14:10:04.889Z,97464.81
2022-08-22T14:12:50.726Z,97461.53
2022-08-22T14:15:26.449Z,97460.16
2022-08-22T14:18:10.932Z,97464.19
2022-08-22T14:20:40.896Z,97460.16
2022-08-22T14:23:15.574Z,97468.56
2022-08-22T14:25:45.337Z,97460.34
2022-08-22T14:28:27.444Z,97457.06
2022-08-22T14:31:02.464Z,97464.41
2022-08-22T14:33:40.103Z,97461.94
2022-08-22T14:36:17.971Z,97460.31
2022-08-22T14:38:52.097Z,97467.06
2022-08-22T14:41:55.699Z,97468.41
2022-08-22T14:44:30.606Z,97469.75
2022-08-22T14:47:04.373Z,97468.09
2022-08-22T14:49:55.435Z,97469.44
2022-08-22T14:52:40.664Z,97475.13
2022-08-22T14:55:22.707Z,97467.81
2022-08-22T14:57:57.670Z,97466.97
2022-08-22T15:00:33.066Z,97471.06
2022-08-22T15:03:14.809Z,97465.34
2022-08-22T15:05:48.051Z,97471.03
2022-08-22T15:08:35.347Z,97478.63
2022-08-22T15:11:13.878Z,97469.31
2022-08-22T15:13:59.878Z,97471.09
2022-08-22T15:16:35.953Z,97472.13
2022-08-22T15:19:22.602Z,97472.09
2022-08-22T15:21:51.868Z,97469.88
2022-08-22T15:24:22.560Z,97470.63
2022-08-22T15:26:55.522Z,97466.19
2022-08-22T15:29:27.785Z,97462.34
2022-08-22T15:32:02.771Z,97454.97
2022-08-22T15:34:39.595Z,97461.69
2022-08-22T15:37:32.368Z,97458.09
2022-08-22T15:40:13.977Z,97465.66
2022-08-22T15:42:47.258Z,97460.19
2022-08-22T15:45:33.909Z,97463.91
2022-08-22T15:48:09.047Z,97455.63
2022-08-22T15:50:42.830Z,97460.75
2022-08-22T15:53:20.343Z,97456.09
2022-08-22T15:56:29.945Z,97453.88
2022-08-22T15:59:53.417Z,97452.97
2022-08-22T16:02:30.018Z,97458.88
2022-08-22T16:05:27.427Z,97455.88
2022-08-22T16:08:05.588Z,97458.00
2022-08-22T16:10:39.869Z,97468.28
2022-08-22T16:13:38.395Z,97465.25
2022-08-22T16:16:13.078Z,97464.09
2022-08-22T16:19:19.866Z,97465.66
2022-08-22T16:22:14.852Z,97465.06
2022-08-22T16:25:10.173Z,97467.78
2022-08-22T16:27:54.199Z,97461.81
2022-08-22T16:30:36.388Z,97464.53
2022-08-22T16:33:07.078Z,97471.59
2022-08-22T16:36:43.611Z,97468.78
2022-08-22T16:39:34.067Z,97472.81
2022-08-22T16:42:26.892Z,97472.47
2022-08-22T16:45:09.768Z,97485.50
2022-08-22T16:47:52.890Z,97482.41
2022-08-22T16:50:37.777Z,97475.59
2022-08-22T16:53:11.494Z,97478.81
2022-08-22T16:56:12.472Z,97472.78
2022-08-22T16:59:22.292Z,97485.22
2022-08-22T17:02:19.765Z,97488.66
2022-08-22T17:05:09.315Z,97483.72
2022-08-22T17:07:55.459Z,97481.50
2022-08-22T17:10:43.293Z,97479.28
2022-08-22T17:13:50.769Z,97480.50
2022-08-22T17:16:40.917Z,97489.59
2022-08-22T17:19:40.137Z,97486.00
2022-08-22T17:22:17.584Z,97488.34
2022-08-22T17:24:52.749Z,97494.50
2022-08-22T17:27:32.240Z,97489.22
2022-08-22T17:30:09.872Z,97496.09
2022-08-22T17:33:02.141Z,97503.75
2022-08-22T17:35:46.460Z,97511.22
2022-08-22T17:38:28.709Z,97498.63
2022-08-22T17:41:08.087Z,97505.84
2022-08-22T17:43:53.280Z,97500.53
2022-08-22T17:46:35.205Z,97515.03
2022-08-22T17:49:17.545Z,97519.78
2022-08-22T17:51:55.253Z,97514.19
2022-08-22T17:54:34.323Z,97517.28
2022-08-22T17:57:09.737Z,97522.34
2022-08-22T17:59:50.170Z,97522.72
2022-08-22T18:02:25.328Z,97516.13
2022-08-22T18:05:07.882Z,97513.31
2022-08-22T18:07:56.803Z,97518.84
2022-08-22T18:10:38.371Z,97526.59
2022-08-22T18:13:12.909Z,97526.50
2022-08-22T18:15:51.186Z,97525.28
2022-08-22T18:18:31.159Z,97533.31
2022-08-22T18:21:05.179Z,97530.00
2022-08-22T18:23:40.853Z,97530.69
2022-08-22T18:26:23.983Z,97535.16
2022-08-22T18:28:56.556Z,97530.44
2022-08-22T18:31:40.173Z,97529.25
2022-08-22T18:34:23.578Z,97538.06
2022-08-22T18:36:58.276Z,97531.22
2022-08-22T18:39:33.155Z,97534.63
2022-08-22T18:42:10.535Z,97536.97
2022-08-22T18:44:40.929Z,97537.44
2022-08-22T18:47:18.089Z,97547.66
2022-08-22T18:49:54.452Z,97535.66
2022-08-22T18:52:39.614Z,97535.53
2022-08-22T18:55:32.462Z,97545.38
2022-08-22T18:58:38.005Z,97543.00
2022-08-22T19:01:35.984Z,97546.63
2022-08-22T19:04:40.985Z,97555.84
2022-08-22T19:07:38.733Z,97554.88
2022-08-22T19:10:38.761Z,97551.44
2022-08-22T19:13:40.303Z,97557.78
2022-08-22T19:16:33.597Z,97561.16
2022-08-22T19:19:05.267Z,97558.06
2022-08-22T19:21:54.309Z,97556.88
2022-08-22T19:25:18.694Z,97557.16
2022-08-22T19:28:25.182Z,97564.53
2022-08-22T19:31:22.772Z,97559.19
2022-08-22T19:34:14.694Z,97555.53
2022-08-22T19:36:46.487Z,97559.50
2022-08-22T19:39:54.680Z,97556.00
2022-08-22T19:42:39.517Z,97559.38
2022-08-22T19:45:21.232Z,97560.88
2022-08-22T19:48:00.932Z,97562.38
2022-08-22T19:50:35.423Z,97562.00
2022-08-22T19:53:39.146Z,97558.31
2022-08-22T19:56:19.600Z,97561.69
2022-08-22T19:59:12.455Z,97559.66
2022-08-22T20:01:59.250Z,97558.44
2022-08-22T20:04:59.942Z,97551.81
2022-08-22T20:07:42.698Z,97562.03
2022-08-22T20:10:26.746Z,97548.38
2022-08-22T20:13:07.573Z,97552.34
2022-08-22T20:16:19.346Z,97554.28
2022-08-22T20:19:07.055Z,97560.13
2022-08-22T20:21:54.783Z,97562.44
2022-08-22T20:24:31.344Z,97553.09
2022-08-22T20:27:13.984Z,97552.47
2022-08-22T20:29:50.151Z,97556.06
2022-08-22T20:32:24.175Z,97551.94
2022-08-22T20:34:59.029Z,97553.16
2022-08-22T20:37:56.187Z,97551.75
2022-08-22T20:40:55.605Z,97547.63
2022-08-22T20:43:31.762Z,97541.84
2022-08-22T20:46:36.160Z,97543.09
2022-08-22T20:49:06.960Z,97536.03
2022-08-22T20:51:35.706Z,97533.56
2022-08-22T20:54:18.216Z,97537.53
2022-08-22T20:56:53.581Z,97542.31
2022-08-22T20:59:36.986Z,97545.22
2022-08-22T21:02:14.533Z,97534.66
2022-08-22T21:04:52.977Z,97539.47
2022-08-22T21:07:28.011Z,97535.34
2022-08-22T21:10:22.875Z,97536.56
2022-08-22T21:13:11.617Z,97535.38
2022-08-22T21:15:43.469Z,97528.34
2022-08-22T21:18:14.165Z,97524.81
2022-08-22T21:20:43.865Z,97527.50
2022-08-22T21:23:15.997Z,97531.47
2022-08-22T21:26:00.625Z,97536.25
2022-08-22T21:28:36.667Z,97538.31
2022-08-22T21:31:14.745Z,97530.44
2022-08-22T21:33:47.443Z,97530.66
2022-08-22T21:36:22.569Z,97532.53
2022-08-22T21:38:55.320Z,97533.56
2022-08-22T21:41:30.969Z,97519.72
2022-08-22T21:44:26.554Z,97523.06
2022-08-22T21:46:56.025Z,97522.63
2022-08-22T21:49:29.434Z,97523.91
2022-08-22T21:51:59.179Z,97526.19
2022-08-22T21:54:42.116Z,97529.53
2022-08-22T21:57:34.628Z,97531.84
2022-08-22T22:00:07.479Z,97533.91
2022-08-22T22:02:40.190Z,97527.91
2022-08-22T22:05:13.343Z,97528.97
2022-08-22T22:07:45.963Z,97524.84
2022-08-22T22:10:18.380Z,97524.22
2022-08-22T22:12:49.121Z,97527.97
2022-08-22T22:15:20.920Z,97524.84
2022-08-22T22:17:49.316Z,97534.19
2022-08-22T22:20:20.789Z,97526.75
2022-08-22T22:22:51.910Z,97529.66
2022-08-22T22:25:40.974Z,97530.09
2022-08-22T22:28:15.547Z,97529.69
2022-08-22T22:30:45.863Z,97521.81
2022-08-22T22:33:14.209Z,97526.56
2022-08-22T22:35:42.971Z,97524.09
2022-08-22T22:38:13.711Z,97526.19
2022-08-22T22:40:42.909Z,97524.72
2022-08-22T22:43:14.661Z,97522.47
2022-08-22T22:45:43.085Z,97525.16
2022-08-22T22:48:11.405Z,97518.34
2022-08-22T22:50:45.950Z,97518.78
2022-08-22T22:53:19.405Z,97522.72
2022-08-22T22:55:59.963Z,97524.56
2022-08-22T22:58:29.234Z,97523.34
2022-08-22T23:00:58.651Z,97520.00
2022-08-22T23:03:27.386Z,97513.19
2022-08-22T23:05:55.708Z,97521.25
2022-08-22T23:08:25.358Z,97510.91
2022-08-22T23:10:53.706Z,97520.25
2022-08-22T23:13:22.538Z,97517.78
2022-08-22T23:15:50.874Z,97512.59
2022-08-22T23:18:20.992Z,97516.53
2022-08-22T23:20:58.725Z,97513.03
2022-08-22T23:23:28.370Z,97508.66
2022-08-22T23:25:56.632Z,97509.06
2022-08-22T23:28:24.992Z,97513.66
2022-08-22T23:30:53.337Z,97515.94
2022-08-22T23:33:21.656Z,97517.19
2022-08-22T23:35:49.998Z,97516.34
2022-08-22T23:38:18.285Z,97514.72
2022-08-22T23:40:50.519Z,97516.78
2022-08-22T23:43:18.812Z,97513.44
2022-08-22T23:45:47.154Z,97517.19
2022-08-22T23:48:15.429Z,97523.81
2022-08-22T23:50:43.791Z,97524.03
2022-08-22T23:53:12.065Z,97528.78
2022-08-22T23:55:40.618Z,97525.09
2022-08-22T23:58:10.479Z,97527.16
